createdAt,value
2018-10-04T00:01:41.756Z,3.33
2018-10-04T00:04:11.258Z,3.00
2018-10-04T00:06:40.879Z,3.10
2018-10-04T00:09:10.402Z,2.80
2018-10-04T00:11:39.965Z,2.80
2018-10-04T00:14:09.482Z,2.90
2018-10-04T00:16:39.113Z,2.90
2018-10-04T00:19:08.754Z,3.10
2018-10-04T00:21:38.304Z,2.80
2018-10-04T00:24:08.010Z,2.60
2018-10-04T00:26:37.537Z,2.97
2018-10-04T00:29:07.159Z,3.00
2018-10-04T00:31:36.782Z,3.00
2018-10-04T00:34:06.385Z,2.60
2018-10-04T00:36:36.021Z,3.07
2018-10-04T00:39:05.969Z,2.70
2018-10-04T00:41:35.520Z,3.10
2018-10-04T00:44:05.134Z,2.60
2018-10-04T00:46:34.693Z,2.93
2018-10-04T00:49:04.279Z,2.70
2018-10-04T00:51:34.017Z,2.57
2018-10-04T00:54:03.569Z,2.50
2018-10-04T00:56:33.167Z,2.67
2018-10-04T00:59:02.683Z,2.50
2018-10-04T01:01:32.252Z,2.53
2018-10-04T01:04:01.850Z,2.70
2018-10-04T01:06:31.495Z,2.60
2018-10-04T01:09:01.066Z,2.37
2018-10-04T01:11:30.705Z,2.33
2018-10-04T01:14:00.246Z,2.70
2018-10-04T01:16:29.824Z,2.60
2018-10-04T01:19:00.657Z,2.80
2018-10-04T01:21:30.167Z,2.77
2018-10-04T01:23:59.749Z,2.80
2018-10-04T01:26:29.332Z,2.70
2018-10-04T01:28:59.048Z,3.00
2018-10-04T01:31:28.794Z,2.73
2018-10-04T01:33:58.382Z,2.83
2018-10-04T01:36:27.895Z,3.00
2018-10-04T01:38:57.403Z,3.10
2018-10-04T01:41:27.004Z,3.03
2018-10-04T01:43:56.638Z,3.00
2018-10-04T01:46:26.160Z,2.73
2018-10-04T01:48:55.709Z,2.50
2018-10-04T01:51:25.253Z,2.67
2018-10-04T01:53:54.793Z,2.70
2018-10-04T01:56:23.772Z,2.60
2018-10-04T01:58:53.344Z,2.53
2018-10-04T02:01:22.915Z,2.83
2018-10-04T02:03:52.445Z,3.00
2018-10-04T02:06:22.018Z,2.73
2018-10-04T02:08:51.537Z,2.60
2018-10-04T02:11:21.136Z,2.60
2018-10-04T02:13:50.672Z,2.87
2018-10-04T02:16:20.314Z,3.00
2018-10-04T02:18:49.916Z,2.90
2018-10-04T02:21:19.464Z,2.60
2018-10-04T02:23:49.059Z,2.67
2018-10-04T02:26:18.675Z,2.97
2018-10-04T02:28:48.371Z,3.93
2018-10-04T02:31:18.097Z,3.77
2018-10-04T02:33:47.737Z,3.60
2018-10-04T02:36:17.382Z,3.07
2018-10-04T02:38:47.017Z,2.90
2018-10-04T02:41:16.703Z,3.23
2018-10-04T02:43:47.332Z,3.33
2018-10-04T02:46:16.925Z,3.20
2018-10-04T02:48:46.550Z,4.10
2018-10-04T02:51:16.128Z,4.00
2018-10-04T02:53:45.732Z,3.97
2018-10-04T02:56:20.637Z,3.80
2018-10-04T02:58:50.257Z,3.57
2018-10-04T03:01:20.242Z,3.10
2018-10-04T03:03:49.830Z,3.23
2018-10-04T03:06:19.559Z,4.13
2018-10-04T03:09:52.077Z,4.83
2018-10-04T03:12:21.781Z,5.30
2018-10-04T03:14:51.483Z,4.80
2018-10-04T03:17:21.104Z,5.13
2018-10-04T03:19:51.533Z,5.13
2018-10-04T03:22:21.456Z,5.70
2018-10-04T03:24:51.443Z,4.93
2018-10-04T03:27:21.618Z,4.90
2018-10-04T03:29:51.847Z,5.40
2018-10-04T03:32:22.021Z,5.00
2018-10-04T03:34:52.027Z,5.07
2018-10-04T03:37:21.661Z,5.10
2018-10-04T03:39:51.258Z,4.90
2018-10-04T03:42:20.878Z,4.60
2018-10-04T03:44:50.699Z,4.20
2018-10-04T03:47:20.256Z,4.00
2018-10-04T03:49:49.888Z,4.10
2018-10-04T03:52:19.564Z,3.80
2018-10-04T03:54:49.303Z,3.23
2018-10-04T03:57:18.948Z,3.13
2018-10-04T03:59:48.528Z,2.80
2018-10-04T04:02:18.193Z,2.87
2018-10-04T04:04:47.802Z,3.10
2018-10-04T04:07:17.465Z,3.27
2018-10-04T04:09:47.012Z,3.20
2018-10-04T04:12:16.578Z,3.57
2018-10-04T04:14:46.249Z,3.77
2018-10-04T04:17:15.873Z,3.33
2018-10-04T04:19:45.426Z,3.57
2018-10-04T04:22:14.513Z,3.77
2018-10-04T04:24:43.586Z,3.80
2018-10-04T04:27:13.250Z,3.83
2018-10-04T04:29:42.818Z,3.67
2018-10-04T04:32:12.468Z,3.77
2018-10-04T04:34:42.013Z,3.40
2018-10-04T04:37:11.702Z,3.70
2018-10-04T04:39:41.247Z,3.90
2018-10-04T04:42:10.753Z,3.87
2018-10-04T04:44:40.332Z,3.30
2018-10-04T04:47:09.958Z,3.40
2018-10-04T04:49:39.495Z,3.33
2018-10-04T04:52:08.562Z,3.40
2018-10-04T04:55:42.998Z,3.47
2018-10-04T04:58:14.594Z,3.40
2018-10-04T05:00:45.911Z,2.97
2018-10-04T05:03:15.499Z,3.50
2018-10-04T05:05:45.030Z,3.00
2018-10-04T05:08:14.614Z,3.53
2018-10-04T05:10:44.172Z,3.10
2018-10-04T05:13:13.742Z,3.03
2018-10-04T05:15:43.414Z,3.00
2018-10-04T05:18:13.151Z,3.30
2018-10-04T05:20:42.653Z,3.00
2018-10-04T05:23:12.316Z,3.60
2018-10-04T05:25:41.899Z,3.77
2018-10-04T05:28:11.504Z,3.97
2018-10-04T05:30:41.098Z,4.10
2018-10-04T05:33:10.684Z,3.90
2018-10-04T05:35:39.666Z,3.37
2018-10-04T05:38:09.290Z,3.63
2018-10-04T05:40:38.848Z,3.43
2018-10-04T05:43:09.554Z,4.40
2018-10-04T05:45:43.796Z,4.83
2018-10-04T05:48:13.684Z,4.60
2018-10-04T05:50:43.313Z,4.00
2018-10-04T05:53:12.898Z,3.90
2018-10-04T05:55:42.577Z,3.30
2018-10-04T05:58:12.255Z,3.40
2018-10-04T06:00:43.884Z,3.22
2018-10-04T06:03:14.491Z,3.20
2018-10-04T06:05:51.211Z,3.20
2018-10-04T06:08:26.345Z,3.00
2018-10-04T06:10:56.084Z,2.87
2018-10-04T06:13:25.598Z,2.67
2018-10-04T06:15:55.140Z,2.73
2018-10-04T06:18:24.849Z,2.83
2018-10-04T06:20:54.407Z,2.27
2018-10-04T06:23:23.994Z,2.40
2018-10-04T06:25:53.516Z,2.27
2018-10-04T06:28:23.160Z,1.93
2018-10-04T06:30:52.743Z,2.10
2018-10-04T06:33:22.362Z,2.27
2018-10-04T06:35:51.886Z,2.00
2018-10-04T06:38:21.413Z,1.80
2018-10-04T06:40:50.928Z,1.80
2018-10-04T06:43:20.507Z,2.00
2018-10-04T06:45:50.136Z,2.10
2018-10-04T06:48:19.736Z,2.10
2018-10-04T06:50:49.321Z,1.93
2018-10-04T06:53:18.938Z,1.83
2018-10-04T06:55:48.526Z,1.90
2018-10-04T06:58:18.193Z,2.00
2018-10-04T07:00:47.777Z,1.60
2018-10-04T07:03:17.333Z,2.00
2018-10-04T07:05:46.973Z,2.10
2018-10-04T07:08:16.450Z,2.20
2018-10-04T07:10:46.013Z,2.03
2018-10-04T07:13:15.621Z,1.90
2018-10-04T07:15:45.189Z,1.57
2018-10-04T07:18:14.834Z,2.00
2018-10-04T07:20:44.507Z,1.70
2018-10-04T07:23:14.207Z,1.90
2018-10-04T07:25:43.756Z,1.90
2018-10-04T07:28:13.456Z,1.80
2018-10-04T07:30:43.070Z,1.90
2018-10-04T07:33:12.692Z,2.10
2018-10-04T07:35:42.335Z,2.00
2018-10-04T07:38:11.950Z,2.20
2018-10-04T07:40:41.483Z,1.77
2018-10-04T07:43:10.996Z,1.90
2018-10-04T07:45:41.356Z,1.90
2018-10-04T07:48:11.026Z,2.23
2018-10-04T07:50:40.534Z,1.80
2018-10-04T07:53:10.133Z,2.00
2018-10-04T07:55:39.666Z,1.73
2018-10-04T07:58:09.308Z,2.00
2018-10-04T08:00:38.952Z,2.30
2018-10-04T08:03:08.698Z,2.10
2018-10-04T08:05:38.428Z,1.83
2018-10-04T08:08:08.009Z,2.00
2018-10-04T08:10:37.562Z,2.00
2018-10-04T08:13:07.195Z,2.23
2018-10-04T08:15:36.771Z,2.20
2018-10-04T08:18:06.320Z,2.33
2018-10-04T08:20:35.873Z,2.40
2018-10-04T08:23:05.438Z,1.90
2018-10-04T08:25:35.002Z,2.10
2018-10-04T08:28:04.596Z,2.03
2018-10-04T08:30:34.246Z,2.33
2018-10-04T08:33:03.892Z,1.90
2018-10-04T08:35:33.526Z,2.13
2018-10-04T08:38:03.085Z,2.13
2018-10-04T08:40:32.643Z,2.37
2018-10-04T08:43:02.247Z,2.60
2018-10-04T08:45:31.808Z,2.43
2018-10-04T08:48:01.342Z,2.40
2018-10-04T08:50:30.973Z,2.27
2018-10-04T08:53:00.582Z,2.53
2018-10-04T08:55:35.838Z,2.63
2018-10-04T08:58:05.731Z,2.20
2018-10-04T09:00:35.401Z,2.27
2018-10-04T09:03:06.447Z,1.73
2018-10-04T09:05:36.204Z,2.40
2018-10-04T09:08:05.757Z,2.25
2018-10-04T09:10:35.366Z,2.30
2018-10-04T09:13:04.993Z,2.37
2018-10-04T09:15:34.779Z,2.30
2018-10-04T09:18:04.406Z,1.90
2018-10-04T09:20:33.954Z,2.30
2018-10-04T09:23:03.503Z,1.90
2018-10-04T09:25:33.268Z,2.30
2018-10-04T09:28:02.843Z,2.27
2018-10-04T09:30:37.378Z,2.17
2018-10-04T09:33:07.077Z,2.53
2018-10-04T09:35:36.635Z,2.20
2018-10-04T09:38:06.240Z,2.20
2018-10-04T09:40:35.846Z,2.20
2018-10-04T09:43:05.446Z,2.40
2018-10-04T09:45:35.201Z,2.40
2018-10-04T09:48:04.848Z,2.20
2018-10-04T09:50:35.349Z,2.23
2018-10-04T09:53:05.054Z,2.10
2018-10-04T09:55:39.885Z,2.23
2018-10-04T09:58:09.430Z,2.63
2018-10-04T10:00:44.370Z,2.00
2018-10-04T10:03:13.976Z,2.20
2018-10-04T10:05:43.605Z,2.20
2018-10-04T10:08:13.289Z,2.20
2018-10-04T10:10:42.915Z,2.40
2018-10-04T10:13:12.922Z,2.70
2018-10-04T10:15:42.682Z,2.57
2018-10-04T10:18:12.463Z,2.70
2018-10-04T10:20:52.203Z,2.17
2018-10-04T10:23:22.209Z,2.17
2018-10-04T10:25:51.822Z,2.43
2018-10-04T10:28:21.385Z,2.73
2018-10-04T10:30:51.000Z,2.30
2018-10-04T10:33:20.639Z,2.70
2018-10-04T10:35:50.249Z,2.63
2018-10-04T10:38:20.470Z,2.70
2018-10-04T10:40:50.157Z,2.90
2018-10-04T10:43:19.746Z,2.53
2018-10-04T10:45:49.452Z,2.30
2018-10-04T10:48:19.464Z,2.30
2018-10-04T10:50:49.165Z,2.60
2018-10-04T10:53:18.973Z,2.70
2018-10-04T10:55:49.153Z,2.50
2018-10-04T10:58:18.769Z,2.33
2018-10-04T11:00:48.689Z,2.62
2018-10-04T11:03:18.261Z,2.27
2018-10-04T11:05:47.815Z,2.47
2018-10-04T11:08:17.518Z,2.53
2018-10-04T11:10:47.085Z,2.83
2018-10-04T11:13:16.659Z,2.93
2018-10-04T11:15:46.217Z,2.50
2018-10-04T11:18:16.335Z,2.43
2018-10-04T11:20:45.867Z,2.73
2018-10-04T11:23:15.498Z,2.43
2018-10-04T11:25:45.074Z,3.17
2018-10-04T11:28:14.710Z,3.10
2018-10-04T11:30:44.231Z,2.93
2018-10-04T11:33:13.939Z,2.90
2018-10-04T11:35:43.884Z,2.90
2018-10-04T11:38:13.574Z,3.20
2018-10-04T11:40:43.198Z,2.90
2018-10-04T11:43:14.653Z,2.70
2018-10-04T11:45:44.659Z,2.90
2018-10-04T11:48:18.426Z,3.05
2018-10-04T11:50:48.061Z,2.57
2018-10-04T11:53:17.628Z,2.90
2018-10-04T11:55:47.228Z,3.33
2018-10-04T11:58:18.723Z,2.93
2018-10-04T12:00:48.793Z,2.92
2018-10-04T12:03:18.506Z,2.95
2018-10-04T12:05:48.129Z,2.57
2018-10-04T12:08:18.530Z,2.17
2018-10-04T12:10:48.201Z,2.40
2018-10-04T12:13:18.157Z,2.20
2018-10-04T12:15:48.128Z,2.20
2018-10-04T12:18:17.690Z,2.30
2018-10-04T12:20:47.255Z,1.70
2018-10-04T12:23:16.857Z,1.83
2018-10-04T12:25:46.431Z,2.10
2018-10-04T12:28:15.933Z,2.00
2018-10-04T12:30:45.530Z,1.95
2018-10-04T12:33:15.118Z,2.00
2018-10-04T12:35:44.748Z,2.20
2018-10-04T12:38:14.377Z,2.13
2018-10-04T12:40:43.966Z,2.20
2018-10-04T12:43:13.614Z,2.10
2018-10-04T12:45:43.700Z,2.00
2018-10-04T12:48:13.325Z,3.90
2018-10-04T12:50:43.036Z,2.37
2018-10-04T12:53:14.659Z,2.20
2018-10-04T12:56:19.091Z,2.63
2018-10-04T13:02:02.590Z,3.40
2018-10-04T13:04:32.266Z,2.90
2018-10-04T13:07:02.105Z,2.50
2018-10-04T13:09:34.331Z,2.00
2018-10-04T13:12:04.082Z,2.40
2018-10-04T13:14:33.857Z,2.00
2018-10-04T13:17:03.988Z,2.30
2018-10-04T13:19:33.554Z,2.20
2018-10-04T13:22:03.125Z,2.73
2018-10-04T13:24:32.654Z,2.07
2018-10-04T13:27:02.292Z,2.30
2018-10-04T13:29:32.312Z,2.50
2018-10-04T13:32:01.816Z,2.30
2018-10-04T13:34:31.640Z,2.10
2018-10-04T13:37:01.592Z,2.20
2018-10-04T13:39:31.182Z,2.10
2018-10-04T13:42:00.691Z,2.20
2018-10-04T13:44:30.252Z,2.20
2018-10-04T13:46:59.867Z,2.20
2018-10-04T13:49:29.558Z,2.40
2018-10-04T13:51:59.230Z,2.40
2018-10-04T13:54:28.815Z,2.40
2018-10-04T13:56:58.524Z,2.13
2018-10-04T13:59:28.204Z,2.27
2018-10-04T14:01:57.763Z,2.20
2018-10-04T14:04:27.322Z,2.13
2018-10-04T14:06:56.988Z,2.20
2018-10-04T14:09:26.600Z,2.58
2018-10-04T14:11:56.803Z,2.20
2018-10-04T14:14:26.956Z,2.02
2018-10-04T14:16:57.272Z,2.20
2018-10-04T14:19:27.551Z,2.00
2018-10-04T14:21:57.947Z,1.90
2018-10-04T14:24:28.207Z,1.90
2018-10-04T14:26:58.658Z,2.20
2018-10-04T14:29:29.342Z,2.13
2018-10-04T14:31:59.843Z,2.33
2018-10-04T14:34:30.185Z,2.13
2018-10-04T14:37:00.480Z,2.20
2018-10-04T14:39:31.164Z,2.50
2018-10-04T14:42:10.033Z,2.47
2018-10-04T14:44:40.766Z,2.37
2018-10-04T14:47:11.143Z,2.00
2018-10-04T14:49:41.495Z,2.10
2018-10-04T14:52:12.034Z,2.13
2018-10-04T14:54:42.420Z,2.00
2018-10-04T14:57:12.811Z,3.00
2018-10-04T14:59:43.756Z,6.07
2018-10-04T15:02:14.197Z,7.50
2018-10-04T15:04:44.565Z,4.10
2018-10-04T15:07:14.991Z,4.40
2018-10-04T15:09:45.415Z,4.50
2018-10-04T15:12:15.826Z,2.20
2018-10-04T15:14:46.232Z,1.90
2018-10-04T15:17:16.798Z,2.00
2018-10-04T15:19:47.159Z,2.20
2018-10-04T15:22:17.640Z,3.00
2018-10-04T15:24:48.061Z,4.27
2018-10-04T15:27:18.504Z,4.42
2018-10-04T15:29:48.864Z,3.93
2018-10-04T15:32:19.322Z,2.73
2018-10-04T15:34:52.847Z,2.23
2018-10-04T15:37:23.290Z,1.97
2018-10-04T15:43:57.560Z,2.00
2018-10-04T15:46:57.338Z,2.13
2018-10-04T15:49:28.849Z,1.87
2018-10-04T15:52:13.668Z,2.00
2018-10-04T15:54:44.242Z,2.10
2018-10-04T15:57:14.761Z,2.30
2018-10-04T15:59:49.896Z,2.57
2018-10-04T16:02:20.388Z,2.77
2018-10-04T16:05:17.225Z,2.60
2018-10-04T16:08:22.391Z,2.27
2018-10-04T16:10:53.097Z,1.90
2018-10-04T16:13:24.099Z,2.10
2018-10-04T16:15:56.569Z,2.20
2018-10-04T16:18:27.011Z,2.20
2018-10-04T16:20:58.045Z,2.20
2018-10-04T16:23:28.531Z,2.40
2018-10-04T16:26:26.423Z,2.20
2018-10-04T16:29:29.676Z,2.60
2018-10-04T16:32:11.597Z,2.20
2018-10-04T16:34:46.696Z,2.10
2018-10-04T16:37:44.253Z,2.10
2018-10-04T16:40:37.927Z,2.40
2018-10-04T16:43:09.714Z,2.50
2018-10-04T16:45:47.811Z,2.50
2018-10-04T16:48:18.250Z,2.70
2018-10-04T16:51:08.678Z,3.30
2018-10-04T16:53:39.093Z,3.13
2018-10-04T16:56:09.637Z,4.00
2018-10-04T16:58:42.954Z,3.93
2018-10-04T17:01:18.028Z,4.70
2018-10-04T17:03:48.773Z,4.27
2018-10-04T17:06:23.521Z,4.57
2018-10-04T17:08:57.260Z,5.10
2018-10-04T17:11:28.013Z,5.30
2018-10-04T17:14:27.999Z,5.43
2018-10-04T17:16:58.622Z,5.03
2018-10-04T17:19:29.228Z,4.60
2018-10-04T17:21:59.750Z,4.10
2018-10-04T17:24:30.691Z,4.00
2018-10-04T17:27:01.106Z,4.43
2018-10-04T17:29:32.695Z,5.00
2018-10-04T17:32:03.290Z,4.67
2018-10-04T17:34:34.814Z,4.27
2018-10-04T17:37:05.310Z,4.93
2018-10-04T17:39:36.770Z,4.57
2018-10-04T17:42:07.248Z,6.00
2018-10-04T17:44:37.774Z,7.47
2018-10-04T17:47:08.341Z,8.20
2018-10-04T17:49:39.758Z,7.50
2018-10-04T17:52:10.166Z,7.73
2018-10-04T17:54:42.500Z,8.27
2018-10-04T17:57:12.957Z,8.50
2018-10-04T17:59:43.427Z,7.23
2018-10-04T18:02:14.692Z,5.73
2018-10-04T18:04:45.155Z,5.27
2018-10-04T18:07:15.573Z,4.57
2018-10-04T18:09:46.982Z,4.17
2018-10-04T18:12:17.421Z,4.20
2018-10-04T18:14:47.851Z,4.03
2018-10-04T18:17:18.362Z,4.70
2018-10-04T18:19:48.821Z,5.50
2018-10-04T18:22:19.328Z,5.37
2018-10-04T18:24:50.677Z,6.17
2018-10-04T18:27:21.091Z,6.03
2018-10-04T18:29:51.494Z,6.23
2018-10-04T18:32:21.939Z,5.50
2018-10-04T18:34:52.334Z,5.07
2018-10-04T18:37:22.740Z,5.40
2018-10-04T18:39:54.162Z,5.23
2018-10-04T18:42:24.584Z,4.90
2018-10-04T18:44:55.025Z,5.87
2018-10-04T18:47:25.470Z,6.03
2018-10-04T18:49:55.911Z,5.90
2018-10-04T18:52:26.259Z,5.30
2018-10-04T18:54:56.608Z,5.87
2018-10-04T18:57:27.024Z,5.60
2018-10-04T18:59:57.598Z,5.77
2018-10-04T19:02:28.250Z,6.63
2018-10-04T19:04:58.747Z,6.77
2018-10-04T19:07:29.179Z,5.87
2018-10-04T19:09:59.617Z,5.73
2018-10-04T19:12:30.034Z,5.80
2018-10-04T19:15:00.476Z,5.80
2018-10-04T19:17:30.907Z,6.03
2018-10-04T19:20:01.685Z,6.10
2018-10-04T19:22:32.166Z,6.30
2018-10-04T19:25:02.637Z,5.90
2018-10-04T19:27:33.168Z,6.20
2018-10-04T19:30:03.582Z,6.50
2018-10-04T19:32:34.053Z,6.30
2018-10-04T19:35:04.545Z,6.53
2018-10-04T19:37:35.761Z,6.20
2018-10-04T19:40:06.521Z,6.17
2018-10-04T19:42:36.979Z,5.70
2018-10-04T19:45:07.629Z,5.20
2018-10-04T19:47:39.154Z,5.37
2018-10-04T19:50:09.611Z,5.73
2018-10-04T19:52:40.073Z,5.30
2018-10-04T19:55:10.600Z,5.37
2018-10-04T19:57:41.048Z,5.60
2018-10-04T20:00:11.468Z,5.10
2018-10-04T20:02:41.910Z,5.17
2018-10-04T20:05:12.392Z,5.07
2018-10-04T20:07:42.769Z,4.87
2018-10-04T20:10:13.172Z,4.43
2018-10-04T20:12:43.538Z,5.10
2018-10-04T20:15:13.981Z,5.20
2018-10-04T20:17:44.425Z,5.30
2018-10-04T20:20:14.846Z,5.47
2018-10-04T20:22:45.297Z,5.30
2018-10-04T20:25:16.313Z,5.50
2018-10-04T20:27:46.738Z,5.30
2018-10-04T20:30:17.159Z,4.80
2018-10-04T20:32:47.478Z,4.00
2018-10-04T20:35:17.966Z,4.87
2018-10-04T20:37:48.320Z,4.50
2018-10-04T20:40:18.718Z,4.33
2018-10-04T20:42:49.129Z,4.87
2018-10-04T20:45:19.568Z,5.00
2018-10-04T20:47:49.961Z,4.80
2018-10-04T20:50:20.240Z,4.30
2018-10-04T20:52:50.512Z,4.17
2018-10-04T20:55:20.809Z,4.17
2018-10-04T20:57:51.580Z,3.87
2018-10-04T21:00:21.422Z,4.10
2018-10-04T21:02:51.121Z,3.87
2018-10-04T21:05:20.906Z,3.77
2018-10-04T21:07:50.664Z,3.97
2018-10-04T21:10:20.478Z,4.17
2018-10-04T21:12:50.268Z,3.97
2018-10-04T21:15:20.051Z,4.00
2018-10-04T21:17:49.825Z,4.07
2018-10-04T21:20:19.514Z,4.30
2018-10-04T21:22:49.390Z,3.97
2018-10-04T21:25:19.011Z,4.00
2018-10-04T21:27:48.796Z,3.73
2018-10-04T21:30:18.509Z,3.93
2018-10-04T21:32:48.116Z,3.70
2018-10-04T21:35:17.672Z,4.30
2018-10-04T21:37:47.240Z,3.70
2018-10-04T21:40:16.844Z,3.60
2018-10-04T21:42:46.393Z,4.60
2018-10-04T21:45:16.047Z,3.60
2018-10-04T21:47:45.717Z,4.17
2018-10-04T21:50:15.289Z,4.00
2018-10-04T21:52:44.860Z,4.00
2018-10-04T21:55:14.412Z,4.33
2018-10-04T21:57:44.124Z,4.33
2018-10-04T22:00:13.789Z,3.90
2018-10-04T22:02:43.436Z,3.97
2018-10-04T22:05:13.047Z,3.80
2018-10-04T22:07:42.649Z,4.10
2018-10-04T22:10:12.325Z,4.10
2018-10-04T22:12:41.903Z,4.10
2018-10-04T22:15:11.488Z,4.63
2018-10-04T22:17:41.044Z,3.83
2018-10-04T22:20:10.616Z,3.73
2018-10-04T22:22:40.199Z,4.00
2018-10-04T22:25:10.007Z,4.07
2018-10-04T22:27:39.543Z,3.90
2018-10-04T22:30:09.256Z,4.57
2018-10-04T22:32:38.911Z,3.93
2018-10-04T22:35:08.464Z,3.83
2018-10-04T22:37:38.051Z,3.60
2018-10-04T22:40:07.672Z,3.73
2018-10-04T22:42:37.161Z,3.87
2018-10-04T22:45:06.835Z,3.73
2018-10-04T22:47:36.490Z,3.57
2018-10-04T22:50:06.189Z,3.50
2018-10-04T22:52:35.794Z,3.57
2018-10-04T22:55:05.363Z,4.20
2018-10-04T22:57:35.013Z,4.13
2018-10-04T23:00:04.662Z,3.90
2018-10-04T23:02:34.223Z,3.70
2018-10-04T23:05:03.910Z,4.63
2018-10-04T23:07:33.585Z,4.23
2018-10-04T23:10:03.210Z,4.20
2018-10-04T23:12:32.820Z,3.70
2018-10-04T23:15:02.443Z,4.07
2018-10-04T23:17:32.016Z,4.17
2018-10-04T23:20:01.613Z,3.60
2018-10-04T23:22:31.211Z,3.30
2018-10-04T23:25:00.843Z,3.67
2018-10-04T23:27:30.467Z,3.33
2018-10-04T23:30:00.124Z,3.80
2018-10-04T23:32:29.739Z,3.90
2018-10-04T23:34:59.263Z,3.70
2018-10-04T23:37:28.928Z,3.73
2018-10-04T23:39:58.799Z,3.90
2018-10-04T23:42:28.433Z,3.93
2018-10-04T23:44:57.998Z,3.93
2018-10-04T23:47:27.674Z,3.93
2018-10-04T23:49:57.302Z,3.67
2018-10-04T23:52:26.889Z,3.53
2018-10-04T23:54:56.489Z,3.60
2018-10-04T23:57:26.112Z,3.70
2018-10-04T23:59:55.702Z,3.60
